createdAt,value
2017-05-25T00:00:47.756Z,43.41
2017-05-25T00:01:47.763Z,43.63
2017-05-25T00:02:47.769Z,42.96
2017-05-25T00:04:47.786Z,43.34
2017-05-25T00:05:47.478Z,43.54
2017-05-25T00:06:47.798Z,43.51
2017-05-25T00:07:47.858Z,43.71
2017-05-25T00:08:47.815Z,43.51
2017-05-25T00:09:47.512Z,43.41
2017-05-25T00:10:47.830Z,43.54
2017-05-25T00:11:47.840Z,43.61
2017-05-25T00:12:47.849Z,43.32
2017-05-25T00:13:47.544Z,43.54
2017-05-25T00:14:47.862Z,44.09
2017-05-25T00:15:47.559Z,44.09
2017-05-25T00:16:47.936Z,43.41
2017-05-25T00:17:47.570Z,43.44
2017-05-25T00:18:47.892Z,43.54
2017-05-25T00:19:47.900Z,43.51
2017-05-25T00:20:47.909Z,43.41
2017-05-25T00:21:47.915Z,43.99
2017-05-25T00:22:47.619Z,44.21
2017-05-25T00:23:47.932Z,44.19
2017-05-25T00:24:47.938Z,44.09
2017-05-25T00:25:47.946Z,43.51
2017-05-25T00:26:48.002Z,44.12
2017-05-25T00:27:47.962Z,44.19
2017-05-25T00:28:47.660Z,44.09
2017-05-25T00:29:47.977Z,43.82
2017-05-25T00:30:47.986Z,43.9
2017-05-25T00:31:47.688Z,43.51
2017-05-25T00:32:48.000Z,43.51
2017-05-25T00:33:48.011Z,43.99
2017-05-25T00:34:47.708Z,43.99
2017-05-25T00:35:48.074Z,43.9
2017-05-25T00:36:48.030Z,43.8
2017-05-25T00:37:47.727Z,43.9
2017-05-25T00:38:48.048Z,43.9
2017-05-25T00:39:48.104Z,43.9
2017-05-25T00:40:47.763Z,44.09
2017-05-25T00:41:47.759Z,44.09
2017-05-25T00:42:48.076Z,44.09
2017-05-25T00:43:48.086Z,44.19
2017-05-25T00:44:48.148Z,44.09
2017-05-25T00:45:48.101Z,43.9
2017-05-25T00:46:48.108Z,43.9
2017-05-25T00:47:48.118Z,44.19
2017-05-25T00:48:47.863Z,43.71
2017-05-25T00:49:48.134Z,43.54
2017-05-25T00:50:47.830Z,43.44
2017-05-25T00:51:48.138Z,44.19
2017-05-25T00:52:47.848Z,43.92
2017-05-25T00:53:47.854Z,43.99
2017-05-25T00:54:48.170Z,43.9
2017-05-25T00:55:48.181Z,44.19
2017-05-25T00:56:48.186Z,43.9
2017-05-25T00:57:48.201Z,43.9
2017-05-25T00:58:48.201Z,44.09
2017-05-25T00:59:48.211Z,44.09
2017-05-25T01:00:48.217Z,43.32
2017-05-25T01:01:48.227Z,43.8
2017-05-25T01:02:48.233Z,44.02
2017-05-25T01:03:48.242Z,43.9
2017-05-25T01:04:48.249Z,43.99
2017-05-25T01:05:48.256Z,43.9
2017-05-25T01:06:48.312Z,44.29
2017-05-25T01:07:48.275Z,43.32
2017-05-25T01:08:48.281Z,44.09
2017-05-25T01:09:48.288Z,44.02
2017-05-25T01:10:48.542Z,43.9
2017-05-25T01:11:47.992Z,43.9
2017-05-25T01:12:48.310Z,43.9
2017-05-25T01:13:48.367Z,43.9
2017-05-25T01:14:48.328Z,43.9
2017-05-25T01:15:48.383Z,43.9
2017-05-25T01:16:48.341Z,44.12
2017-05-25T01:17:48.351Z,43.54
2017-05-25T01:18:48.048Z,43.9
2017-05-25T01:19:48.055Z,43.99
2017-05-25T01:20:48.370Z,43.51
2017-05-25T01:21:48.380Z,43.8
2017-05-25T01:22:48.439Z,43.9
2017-05-25T01:23:48.140Z,43.8
2017-05-25T01:24:48.401Z,43.9
2017-05-25T01:25:48.410Z,43.99
2017-05-25T01:26:48.417Z,43.51
2017-05-25T01:27:48.117Z,44.21
2017-05-25T01:28:48.442Z,43.99
2017-05-25T01:29:48.443Z,43.99
2017-05-25T01:30:48.449Z,43.99
2017-05-25T01:31:48.457Z,43.8
2017-05-25T01:32:48.154Z,43.8
2017-05-25T01:33:48.468Z,43.9
2017-05-25T01:34:48.480Z,43.8
2017-05-25T01:35:48.174Z,43.8
2017-05-25T01:36:48.498Z,44.09
2017-05-25T01:37:48.503Z,44.29
2017-05-25T01:38:48.509Z,43.8
2017-05-25T01:39:48.205Z,43.8
2017-05-25T01:40:48.575Z,43.71
2017-05-25T01:41:48.536Z,44.29
2017-05-25T01:42:48.549Z,43.71
2017-05-25T01:43:48.550Z,43.71
2017-05-25T01:44:48.243Z,43.8
2017-05-25T01:45:48.562Z,43.99
2017-05-25T01:46:48.569Z,44.09
2017-05-25T01:47:48.579Z,43.8
2017-05-25T01:48:48.588Z,43.9
2017-05-25T01:49:48.642Z,44.09
2017-05-25T01:50:48.291Z,44.29
2017-05-25T01:51:48.609Z,44.29
2017-05-25T01:52:48.306Z,43.8
2017-05-25T01:53:48.624Z,43.61
2017-05-25T01:54:48.931Z,43.8
2017-05-25T01:55:48.331Z,43.61
2017-05-25T01:56:48.646Z,43.99
2017-05-25T01:57:48.759Z,44.29
2017-05-25T01:58:48.667Z,44.38
2017-05-25T01:59:48.674Z,44.09
2017-05-25T02:00:48.680Z,43.8
2017-05-25T02:01:48.686Z,43.99
2017-05-25T02:02:48.700Z,43.9
2017-05-25T02:03:48.754Z,43.9
2017-05-25T02:04:48.399Z,43.8
2017-05-25T02:05:48.715Z,43.99
2017-05-25T02:06:48.728Z,44.29
2017-05-25T02:07:48.730Z,44.29
2017-05-25T02:08:48.429Z,43.99
2017-05-25T02:09:48.750Z,43.71
2017-05-25T02:10:48.758Z,44.09
2017-05-25T02:11:48.454Z,44.19
2017-05-25T02:12:48.824Z,44.29
2017-05-25T02:13:48.880Z,44.29
2017-05-25T02:14:48.784Z,44.29
2017-05-25T02:15:48.843Z,44.29
2017-05-25T02:16:48.801Z,44.29
2017-05-25T02:17:48.857Z,44.19
2017-05-25T02:18:48.822Z,43.9
2017-05-25T02:19:48.840Z,43.99
2017-05-25T02:20:48.879Z,44.19
2017-05-25T02:21:48.840Z,43.9
2017-05-25T02:22:48.536Z,44.29
2017-05-25T02:23:48.904Z,44.19
2017-05-25T02:24:48.863Z,44.29
2017-05-25T02:25:48.870Z,44.09
2017-05-25T02:26:48.875Z,44.29
2017-05-25T02:27:48.883Z,44.29
2017-05-25T02:28:48.604Z,44.09
2017-05-25T02:29:48.642Z,44.09
2017-05-25T02:30:48.913Z,43.8
2017-05-25T02:31:48.920Z,44.29
2017-05-25T02:32:48.613Z,44.29
2017-05-25T02:33:48.930Z,43.9
2017-05-25T02:34:48.940Z,43.71
2017-05-25T02:35:48.948Z,43.8
2017-05-25T02:36:48.954Z,43.99
2017-05-25T02:37:49.013Z,44.29
2017-05-25T02:38:48.969Z,44.38
2017-05-25T02:39:48.979Z,43.99
2017-05-25T02:40:48.673Z,43.8
2017-05-25T02:41:49.043Z,44.29
2017-05-25T02:42:49.000Z,44.29
2017-05-25T02:43:49.010Z,44.29
2017-05-25T02:44:49.065Z,43.9
2017-05-25T02:45:49.023Z,44.09
2017-05-25T02:46:49.034Z,44.09
2017-05-25T02:47:49.041Z,43.9
2017-05-25T02:48:49.049Z,44.29
2017-05-25T02:49:49.056Z,44.09
2017-05-25T02:50:49.110Z,44.09
2017-05-25T02:51:49.071Z,43.8
2017-05-25T02:52:48.768Z,44.29
2017-05-25T02:53:49.085Z,43.99
2017-05-25T02:54:49.145Z,44.48
2017-05-25T02:55:48.790Z,44.38
2017-05-25T02:56:49.110Z,44.38
2017-05-25T02:57:48.855Z,44.38
2017-05-25T02:58:49.174Z,44.29
2017-05-25T02:59:48.870Z,43.9
2017-05-25T03:00:49.143Z,43.99
2017-05-25T03:01:49.197Z,43.99
2017-05-25T03:02:49.157Z,43.9
2017-05-25T03:03:49.217Z,44.38
2017-05-25T03:04:49.171Z,44.38
2017-05-25T03:05:48.866Z,44.38
2017-05-25T03:06:49.186Z,44.29
2017-05-25T03:07:48.933Z,44.48
2017-05-25T03:08:49.201Z,44.48
2017-05-25T03:09:48.898Z,44.19
2017-05-25T03:10:49.216Z,44.19
2017-05-25T03:11:49.224Z,44.29
2017-05-25T03:12:48.973Z,44.57
2017-05-25T03:13:48.937Z,43.9
2017-05-25T03:14:49.246Z,44.09
2017-05-25T03:15:48.945Z,43.99
2017-05-25T03:16:49.262Z,43.99
2017-05-25T03:17:49.270Z,43.8
2017-05-25T03:18:49.279Z,44.29
2017-05-25T03:19:48.975Z,44.09
2017-05-25T03:20:48.983Z,44.19
2017-05-25T03:21:48.990Z,43.99
2017-05-25T03:22:48.998Z,43.8
2017-05-25T03:23:49.008Z,43.99
2017-05-25T03:24:49.327Z,43.9
2017-05-25T03:25:49.020Z,43.9
2017-05-25T03:26:49.028Z,44.09
2017-05-25T03:27:49.347Z,43.9
2017-05-25T03:28:49.358Z,43.99
2017-05-25T03:29:49.361Z,44.09
2017-05-25T03:30:49.369Z,44.29
2017-05-25T03:31:49.380Z,43.9
2017-05-25T03:32:49.074Z,44.29
2017-05-25T03:33:49.392Z,44.19
2017-05-25T03:34:49.401Z,44.09
2017-05-25T03:35:49.408Z,44.19
2017-05-25T03:36:49.473Z,43.8
2017-05-25T03:37:49.423Z,43.8
2017-05-25T03:38:49.432Z,44.09
2017-05-25T03:39:49.440Z,43.71
2017-05-25T03:40:49.445Z,43.71
2017-05-25T03:41:49.452Z,44.29
2017-05-25T03:42:49.459Z,43.9
2017-05-25T03:43:49.468Z,44.09
2017-05-25T03:44:49.475Z,43.8
2017-05-25T03:45:49.534Z,43.8
2017-05-25T03:46:49.490Z,43.71
2017-05-25T03:47:49.498Z,43.8
2017-05-25T03:48:49.508Z,43.8
2017-05-25T03:49:49.514Z,43.9
2017-05-25T03:50:49.520Z,43.8
2017-05-25T03:51:49.531Z,43.9
2017-05-25T03:52:49.535Z,43.9
2017-05-25T03:53:49.284Z,43.8
2017-05-25T03:54:49.553Z,43.9
2017-05-25T03:55:49.667Z,43.9
2017-05-25T03:56:49.259Z,43.9
2017-05-25T03:57:49.264Z,43.9
2017-05-25T03:58:49.583Z,44.19
2017-05-25T03:59:49.596Z,43.8
2017-05-25T04:00:49.599Z,43.8
2017-05-25T04:01:49.614Z,43.9
2017-05-25T04:02:49.614Z,43.99
2017-05-25T04:03:49.623Z,43.9
2017-05-25T04:04:49.641Z,43.9
2017-05-25T04:05:49.648Z,43.9
2017-05-25T04:06:49.332Z,43.9
2017-05-25T04:07:49.653Z,43.9
2017-05-25T04:08:49.712Z,43.9
2017-05-25T04:09:49.668Z,43.71
2017-05-25T04:10:49.743Z,43.71
2017-05-25T04:11:49.377Z,43.8
2017-05-25T04:12:49.383Z,43.8
2017-05-25T04:13:49.696Z,43.8
2017-05-25T04:14:49.707Z,43.9
2017-05-25T04:15:49.716Z,43.9
2017-05-25T04:16:49.723Z,43.9
2017-05-25T04:17:49.421Z,43.9
2017-05-25T04:18:49.738Z,43.9
2017-05-25T04:19:49.745Z,43.9
2017-05-25T04:20:49.752Z,43.9
2017-05-25T04:21:49.757Z,43.99
2017-05-25T04:22:49.456Z,44.09
2017-05-25T04:23:49.826Z,43.99
2017-05-25T04:24:49.530Z,44.19
2017-05-25T04:25:49.841Z,44.19
2017-05-25T04:26:49.861Z,44.09
2017-05-25T04:27:49.806Z,43.9
2017-05-25T04:28:49.815Z,44.09
2017-05-25T04:29:49.824Z,43.61
2017-05-25T04:30:49.831Z,44.29
2017-05-25T04:31:49.524Z,44.19
2017-05-25T04:32:49.842Z,44.29
2017-05-25T04:33:49.866Z,44.19
2017-05-25T04:34:49.861Z,44.29
2017-05-25T04:35:49.868Z,44.09
2017-05-25T04:36:49.883Z,44.09
2017-05-25T04:37:49.932Z,43.99
2017-05-25T04:38:49.881Z,43.9
2017-05-25T04:39:49.898Z,43.9
2017-05-25T04:40:49.904Z,44.29
2017-05-25T04:41:49.912Z,43.71
2017-05-25T04:42:49.969Z,44.09
2017-05-25T04:43:49.617Z,44.29
2017-05-25T04:44:49.624Z,44.17
2017-05-25T04:45:49.995Z,43.51
2017-05-25T04:46:49.952Z,43.32
2017-05-25T04:47:50.009Z,43.71
2017-05-25T04:48:50.265Z,43.71
2017-05-25T04:49:49.663Z,43.61
2017-05-25T04:50:50.033Z,43.41
2017-05-25T04:51:49.987Z,43.51
2017-05-25T04:52:49.994Z,43.71
2017-05-25T04:53:50.003Z,43.51
2017-05-25T04:54:49.700Z,43.49
2017-05-25T04:55:50.017Z,43.51
2017-05-25T04:56:50.026Z,43.61
2017-05-25T04:57:50.082Z,43.41
2017-05-25T04:58:50.038Z,43.41
2017-05-25T04:59:50.048Z,43.41
2017-05-25T05:00:50.057Z,43.32
2017-05-25T05:01:50.114Z,43.23
2017-05-25T05:02:50.122Z,43.13
2017-05-25T05:03:49.771Z,43.23
2017-05-25T05:04:49.781Z,43.41
2017-05-25T05:05:50.097Z,43.41
2017-05-25T05:06:50.105Z,43.51
2017-05-25T05:07:50.161Z,43.41
2017-05-25T05:08:50.118Z,43.13
2017-05-25T05:09:49.813Z,43.13
2017-05-25T05:10:50.130Z,43.23
2017-05-25T05:11:50.139Z,43.23
2017-05-25T05:12:50.148Z,43.13
2017-05-25T05:13:50.156Z,42.93
2017-05-25T05:14:50.163Z,43.51
2017-05-25T05:15:50.174Z,43.71
2017-05-25T05:16:49.868Z,43.13
2017-05-25T05:17:50.241Z,43.03
2017-05-25T05:18:50.245Z,43.41
2017-05-25T05:19:50.201Z,43.03
2017-05-25T05:20:50.259Z,43.03
2017-05-25T05:21:49.906Z,43.03
2017-05-25T05:22:50.324Z,43.23
2017-05-25T05:23:50.233Z,43.13
2017-05-25T05:24:50.244Z,42.93
2017-05-25T05:25:50.246Z,43.03
2017-05-25T05:26:49.943Z,43.03
2017-05-25T05:27:50.265Z,43.23
2017-05-25T05:28:50.272Z,43.23
2017-05-25T05:29:50.277Z,43.13
2017-05-25T05:30:50.284Z,43.03
2017-05-25T05:31:50.297Z,43.23
2017-05-25T05:32:50.300Z,43.13
2017-05-25T05:33:50.314Z,43.23
2017-05-25T05:34:50.321Z,42.83
2017-05-25T05:35:50.325Z,42.74
2017-05-25T05:36:50.332Z,42.65
2017-05-25T05:37:50.343Z,42.65
2017-05-25T05:38:50.647Z,42.65
2017-05-25T05:39:50.355Z,42.65
2017-05-25T05:40:50.364Z,42.47
2017-05-25T05:41:50.421Z,42.74
2017-05-25T05:42:50.427Z,42.74
2017-05-25T05:43:50.073Z,42.74
2017-05-25T05:44:50.393Z,42.83
2017-05-25T05:45:50.401Z,42.83
2017-05-25T05:46:50.456Z,42.65
2017-05-25T05:47:50.416Z,42.74
2017-05-25T05:48:50.215Z,42.83
2017-05-25T05:49:50.122Z,42.65
2017-05-25T05:50:50.438Z,42.74
2017-05-25T05:51:50.445Z,42.83
2017-05-25T05:52:50.453Z,42.83
2017-05-25T05:53:50.461Z,42.74
2017-05-25T05:54:50.467Z,42.74
2017-05-25T05:55:50.463Z,42.55
2017-05-25T05:56:50.175Z,42.65
2017-05-25T05:57:50.497Z,42.93
2017-05-25T05:58:50.798Z,42.83
2017-05-25T05:59:50.509Z,42.74
2017-05-25T06:00:50.516Z,42.35
2017-05-25T06:01:50.214Z,43.23
2017-05-25T06:02:50.222Z,42.74
2017-05-25T06:03:50.591Z,42.65
2017-05-25T06:04:50.544Z,43.03
2017-05-25T06:05:50.555Z,42.74
2017-05-25T06:06:50.561Z,42.55
2017-05-25T06:07:50.568Z,42.45
2017-05-25T06:08:50.576Z,42.93
2017-05-25T06:09:50.585Z,42.65
2017-05-25T06:10:50.640Z,42.25
2017-05-25T06:11:50.291Z,42.45
2017-05-25T06:12:50.297Z,43.03
2017-05-25T06:13:50.304Z,42.65
2017-05-25T06:14:50.313Z,42.25
2017-05-25T06:15:50.629Z,42.76
2017-05-25T06:16:50.327Z,42.37
2017-05-25T06:17:50.647Z,42.37
2017-05-25T06:18:50.654Z,42.28
2017-05-25T06:19:50.668Z,42.18
2017-05-25T06:20:50.678Z,42.47
2017-05-25T06:21:50.370Z,42.08
2017-05-25T06:22:50.687Z,42.57
2017-05-25T06:23:50.388Z,41.41
2017-05-25T06:24:50.701Z,42.37
2017-05-25T06:25:50.759Z,42.66
2017-05-25T06:26:50.763Z,41.79
2017-05-25T06:27:50.721Z,41.79
2017-05-25T06:28:50.420Z,42.47
2017-05-25T06:29:50.776Z,41.5
2017-05-25T06:30:50.439Z,42.57
2017-05-25T06:31:50.759Z,42.57
2017-05-25T06:32:50.505Z,42.37
2017-05-25T06:33:50.766Z,42.37
2017-05-25T06:34:50.825Z,42.37
2017-05-25T06:35:50.522Z,42.28
2017-05-25T06:36:50.841Z,42.37
2017-05-25T06:37:50.802Z,42.18
2017-05-25T06:38:50.806Z,42.35
2017-05-25T06:39:50.816Z,42.37
2017-05-25T06:40:50.823Z,42.25
2017-05-25T06:41:50.880Z,42.28
2017-05-25T06:42:50.530Z,42.35
2017-05-25T06:43:50.848Z,42.25
2017-05-25T06:44:50.853Z,42.37
2017-05-25T06:45:50.861Z,42.28
2017-05-25T06:46:50.557Z,42.37
2017-05-25T06:47:50.879Z,42.28
2017-05-25T06:48:50.883Z,42.08
2017-05-25T06:49:50.894Z,42.37
2017-05-25T06:50:50.900Z,42.57
2017-05-25T06:51:50.959Z,42.47
2017-05-25T06:52:50.916Z,42.45
2017-05-25T06:53:50.924Z,42.28
2017-05-25T06:54:50.930Z,41.7
2017-05-25T06:55:50.629Z,41.89
2017-05-25T06:56:50.638Z,41.41
2017-05-25T06:57:50.957Z,41.79
2017-05-25T06:58:50.961Z,41.79
2017-05-25T06:59:50.969Z,41.5
2017-05-25T07:00:50.976Z,41.99
2017-05-25T07:01:50.989Z,41.7
2017-05-25T07:02:50.992Z,41.99
2017-05-25T07:03:51.000Z,41.31
2017-05-25T07:04:51.011Z,41.6
2017-05-25T07:05:50.710Z,41.7
2017-05-25T07:06:51.023Z,41.6
2017-05-25T07:07:51.032Z,41.5
2017-05-25T07:08:51.038Z,40.73
2017-05-25T07:09:51.048Z,41.31
2017-05-25T07:10:51.108Z,41.5
2017-05-25T07:11:51.066Z,40.63
2017-05-25T07:12:51.076Z,40.94
2017-05-25T07:13:51.083Z,41.14
2017-05-25T07:14:51.087Z,41.42
2017-05-25T07:15:51.093Z,41.24
2017-05-25T07:16:50.792Z,40.56
2017-05-25T07:17:51.112Z,40.46
2017-05-25T07:18:51.118Z,39.9
2017-05-25T07:19:51.127Z,40.36
2017-05-25T07:20:51.136Z,40.56
2017-05-25T07:21:50.837Z,40.75
2017-05-25T07:22:51.152Z,40.84
2017-05-25T07:23:51.159Z,40.65
2017-05-25T07:24:51.167Z,40.75
2017-05-25T07:25:51.187Z,40.56
2017-05-25T07:26:51.232Z,40.56
2017-05-25T07:27:51.192Z,39.97
2017-05-25T07:28:51.200Z,40.36
2017-05-25T07:29:51.258Z,40.09
2017-05-25T07:30:51.216Z,39.41
2017-05-25T07:31:51.222Z,39.22
2017-05-25T07:32:51.230Z,38.64
2017-05-25T07:33:51.241Z,37.98
2017-05-25T07:34:50.936Z,34.14
2017-05-25T07:35:51.257Z,31.51
2017-05-25T07:36:51.263Z,32.13
2017-05-25T07:37:51.273Z,34.14
2017-05-25T07:38:51.282Z,35.27
2017-05-25T07:39:51.287Z,35.92
2017-05-25T07:40:51.313Z,35.9
2017-05-25T07:41:51.305Z,35.8
2017-05-25T07:42:51.315Z,36.19
2017-05-25T07:43:51.326Z,36.19
2017-05-25T07:44:51.333Z,36.58
2017-05-25T07:45:51.340Z,36.48
2017-05-25T07:46:51.347Z,36.68
2017-05-25T07:47:51.359Z,36.68
2017-05-25T07:48:51.056Z,36.77
2017-05-25T07:49:51.423Z,36.48
2017-05-25T07:50:51.385Z,36.68
2017-05-25T07:51:51.077Z,36.58
2017-05-25T07:52:51.084Z,36.58
2017-05-25T07:53:51.468Z,36.19
2017-05-25T07:54:51.413Z,35.8
2017-05-25T07:55:51.421Z,34.38
2017-05-25T07:56:51.175Z,33.53
2017-05-25T07:57:51.443Z,33.17
2017-05-25T07:58:51.444Z,33.85
2017-05-25T07:59:51.453Z,34.52
2017-05-25T08:00:51.463Z,34.87
2017-05-25T08:01:51.471Z,35.25
2017-05-25T08:02:51.481Z,35.45
2017-05-25T08:03:51.539Z,35.82
2017-05-25T08:04:51.567Z,36.11
2017-05-25T08:05:51.193Z,35.92
2017-05-25T08:06:51.200Z,36.4
2017-05-25T08:07:51.522Z,36.5
2017-05-25T08:08:51.270Z,36.5
2017-05-25T08:09:51.586Z,36.4
2017-05-25T08:10:51.233Z,35.92
2017-05-25T08:11:51.557Z,36.3
2017-05-25T08:12:51.560Z,36.5
2017-05-25T08:13:51.575Z,36.02
2017-05-25T08:14:51.626Z,36.21
2017-05-25T08:15:51.584Z,36.11
2017-05-25T08:16:51.593Z,36.21
2017-05-25T08:17:51.605Z,36.29
2017-05-25T08:18:51.612Z,36.6
2017-05-25T08:19:51.620Z,36.48
2017-05-25T08:20:51.678Z,36.48
2017-05-25T08:21:51.638Z,36.5
2017-05-25T08:22:51.336Z,36.58
2017-05-25T08:23:51.654Z,36.4
2017-05-25T08:24:51.664Z,36.68
2017-05-25T08:25:51.670Z,36.68
2017-05-25T08:26:51.679Z,36.58
2017-05-25T08:27:51.687Z,36.68
2017-05-25T08:28:51.693Z,36.68
2017-05-25T08:29:51.391Z,36.58
2017-05-25T08:30:51.765Z,36.48
2017-05-25T08:31:51.721Z,36.77
2017-05-25T08:32:51.781Z,36.68
2017-05-25T08:33:51.739Z,36.58
2017-05-25T08:34:51.436Z,36.77
2017-05-25T08:35:51.754Z,36.97
2017-05-25T08:36:51.813Z,37.07
2017-05-25T08:37:51.465Z,37.26
2017-05-25T08:38:51.776Z,37.07
2017-05-25T08:39:51.478Z,36.97
2017-05-25T08:40:51.795Z,36.95
2017-05-25T08:41:51.806Z,37.15
2017-05-25T08:42:51.813Z,37.16
2017-05-25T08:43:51.509Z,36.95
2017-05-25T08:44:51.832Z,36.77
2017-05-25T08:45:51.837Z,36.95
2017-05-25T08:46:51.895Z,37.15
2017-05-25T08:47:51.860Z,37.92
2017-05-25T08:48:51.873Z,38.21
2017-05-25T08:49:51.560Z,38.19
2017-05-25T08:50:51.880Z,37.9
2017-05-25T08:51:51.886Z,38.09
2017-05-25T08:52:51.945Z,38.09
2017-05-25T08:53:51.593Z,38.19
2017-05-25T08:54:51.914Z,38
2017-05-25T08:55:51.917Z,38.09
2017-05-25T08:56:51.925Z,37.9
2017-05-25T08:57:51.933Z,37.9
2017-05-25T08:58:51.681Z,37.61
2017-05-25T08:59:51.999Z,37.71
2017-05-25T09:00:51.957Z,37.81
2017-05-25T09:01:52.066Z,38.09
2017-05-25T09:02:52.024Z,37.71
2017-05-25T09:03:52.080Z,38
2017-05-25T09:04:52.042Z,38.09
2017-05-25T09:05:51.685Z,38.29
2017-05-25T09:06:52.003Z,38.29
2017-05-25T09:07:52.011Z,38.09
2017-05-25T09:08:52.019Z,37.92
2017-05-25T09:09:52.029Z,37.82
2017-05-25T09:10:52.032Z,37.43
2017-05-25T09:11:52.039Z,38.12
2017-05-25T09:12:52.050Z,38.09
2017-05-25T09:13:52.057Z,37.9
2017-05-25T09:14:52.066Z,38
2017-05-25T09:15:52.072Z,38
2017-05-25T09:16:52.078Z,38
2017-05-25T09:17:52.136Z,37.71
2017-05-25T09:18:51.785Z,37.9
2017-05-25T09:19:52.105Z,37.43
2017-05-25T09:20:52.106Z,38
2017-05-25T09:21:52.116Z,37.9
2017-05-25T09:22:52.126Z,37.82
2017-05-25T09:23:52.132Z,37.92
2017-05-25T09:24:52.243Z,38.21
2017-05-25T09:25:52.146Z,38.02
2017-05-25T09:26:52.157Z,38.19
2017-05-25T09:27:52.225Z,38.19
2017-05-25T09:28:52.169Z,38.19
2017-05-25T09:29:52.180Z,38.39
2017-05-25T09:30:52.187Z,38.39
2017-05-25T09:31:52.203Z,38.09
2017-05-25T09:32:52.251Z,38.09
2017-05-25T09:33:52.208Z,38.39
2017-05-25T09:34:52.267Z,38.09
2017-05-25T09:35:52.223Z,38.39
2017-05-25T09:36:51.973Z,38.19
2017-05-25T09:37:51.980Z,38.09
2017-05-25T09:38:51.939Z,38
2017-05-25T09:39:51.943Z,38.09
2017-05-25T09:40:52.261Z,38.29
2017-05-25T09:41:52.327Z,38.48
2017-05-25T09:42:51.969Z,38.09
2017-05-25T09:43:52.284Z,38.48
2017-05-25T09:44:52.299Z,38.39
2017-05-25T09:45:52.353Z,38.39
2017-05-25T09:46:52.307Z,38.29
2017-05-25T09:47:52.314Z,38.29
2017-05-25T09:48:52.015Z,38.48
2017-05-25T09:49:52.453Z,38.46
2017-05-25T09:50:52.340Z,38.46
2017-05-25T09:51:52.394Z,38.29
2017-05-25T09:52:52.356Z,38.58
2017-05-25T09:53:52.364Z,38.39
2017-05-25T09:54:52.421Z,38.19
2017-05-25T09:55:52.379Z,37.61
2017-05-25T09:56:52.389Z,37.92
2017-05-25T09:57:52.080Z,38.19
2017-05-25T09:58:52.403Z,38.19
2017-05-25T09:59:52.461Z,38.39
2017-05-25T10:00:52.465Z,38.39
2017-05-25T10:01:52.425Z,38.58
2017-05-25T10:02:52.437Z,38.19
2017-05-25T10:03:52.438Z,38.39
2017-05-25T10:04:52.547Z,38.39
2017-05-25T10:05:52.145Z,38.29
2017-05-25T10:06:52.460Z,38.37
2017-05-25T10:07:52.468Z,38.58
2017-05-25T10:08:52.479Z,38.58
2017-05-25T10:09:52.485Z,38.39
2017-05-25T10:10:52.186Z,38.29
2017-05-25T10:11:52.187Z,38.39
2017-05-25T10:12:52.248Z,38.48
2017-05-25T10:13:52.203Z,38.39
2017-05-25T10:14:52.523Z,38
2017-05-25T10:15:52.269Z,38.48
2017-05-25T10:16:52.537Z,38.19
2017-05-25T10:17:52.552Z,38.39
2017-05-25T10:18:52.557Z,38.48
2017-05-25T10:19:52.252Z,38.37
2017-05-25T10:20:52.669Z,38.56
2017-05-25T10:21:52.264Z,38.39
2017-05-25T10:22:52.274Z,38.46
2017-05-25T10:23:52.593Z,38.46
2017-05-25T10:24:52.602Z,38.37
2017-05-25T10:25:52.296Z,38.09
2017-05-25T10:26:52.616Z,38
2017-05-25T10:27:52.679Z,37.71
2017-05-25T10:28:52.685Z,37.71
2017-05-25T10:29:52.638Z,38
2017-05-25T10:30:52.336Z,38
2017-05-25T10:31:52.655Z,37.61
2017-05-25T10:32:52.425Z,37.61
2017-05-25T10:33:52.670Z,37.41
2017-05-25T10:34:52.364Z,37.32
2017-05-25T10:35:52.685Z,37.51
2017-05-25T10:36:52.689Z,37.59
2017-05-25T10:37:52.697Z,37.11
2017-05-25T10:38:52.760Z,37.49
2017-05-25T10:39:52.716Z,37.3
2017-05-25T10:40:52.773Z,37.01
2017-05-25T10:41:52.726Z,37.01
2017-05-25T10:42:52.425Z,36.54
2017-05-25T10:43:52.795Z,36.93
2017-05-25T10:44:52.755Z,36.52
2017-05-25T10:45:52.761Z,37.21
2017-05-25T10:46:52.767Z,36.82
2017-05-25T10:47:52.777Z,36.91
2017-05-25T10:48:52.473Z,36.82
2017-05-25T10:49:52.839Z,37.3
2017-05-25T10:50:52.798Z,37.01
2017-05-25T10:51:52.808Z,36.52
2017-05-25T10:52:52.816Z,36.93
2017-05-25T10:53:52.824Z,36.62
2017-05-25T10:54:52.830Z,36.43
2017-05-25T10:55:52.576Z,36.52
2017-05-25T10:56:52.877Z,36.62
2017-05-25T10:57:52.963Z,36.52
2017-05-25T10:58:52.859Z,36.72
2017-05-25T10:59:52.918Z,36.82
2017-05-25T11:00:52.873Z,37.01
2017-05-25T11:01:52.881Z,36.91
2017-05-25T11:02:52.948Z,36.91
2017-05-25T11:03:52.899Z,36.91
2017-05-25T11:04:52.645Z,37.01
2017-05-25T11:05:52.602Z,36.91
2017-05-25T11:06:52.613Z,36.72
2017-05-25T11:07:52.982Z,36.93
2017-05-25T11:08:52.767Z,36.62
2017-05-25T11:09:53.001Z,36.91
2017-05-25T11:10:52.954Z,36.64
2017-05-25T11:11:52.966Z,36.82
2017-05-25T11:12:52.968Z,37.11
2017-05-25T11:13:53.030Z,36.91
2017-05-25T11:14:52.993Z,37.01
2017-05-25T11:15:52.994Z,36.91
2017-05-25T11:16:53.003Z,36.91
2017-05-25T11:17:53.061Z,36.52
2017-05-25T11:18:53.028Z,37.01
2017-05-25T11:19:52.717Z,36.91
2017-05-25T11:20:52.722Z,37.01
2017-05-25T11:21:53.042Z,36.91
2017-05-25T11:22:52.739Z,36.91
2017-05-25T11:23:52.796Z,37.01
2017-05-25T11:24:53.073Z,37.3
2017-05-25T11:25:53.078Z,36.52
2017-05-25T11:26:53.088Z,37.01
2017-05-25T11:27:53.088Z,37.11
2017-05-25T11:28:52.785Z,37.01
2017-05-25T11:29:53.105Z,37.3
2017-05-25T11:30:52.799Z,37.49
2017-05-25T11:31:53.118Z,37.4
2017-05-25T11:32:53.145Z,37.3
2017-05-25T11:33:52.824Z,37.3
2017-05-25T11:34:52.831Z,37.21
2017-05-25T11:35:52.839Z,37.21
2017-05-25T11:36:52.848Z,37.21
2017-05-25T11:37:52.858Z,37.4
2017-05-25T11:38:53.224Z,37.49
2017-05-25T11:39:52.873Z,37.4
2017-05-25T11:40:53.230Z,37.03
2017-05-25T11:41:52.890Z,37.32
2017-05-25T11:42:52.898Z,37.4
2017-05-25T11:43:52.907Z,37.4
2017-05-25T11:44:53.226Z,37.49
2017-05-25T11:45:52.953Z,37.4
2017-05-25T11:46:52.929Z,36.91
2017-05-25T11:47:52.944Z,37.01
2017-05-25T11:48:52.946Z,37.59
2017-05-25T11:49:53.265Z,37.79
2017-05-25T11:50:52.962Z,37.4
2017-05-25T11:51:53.279Z,37.59
2017-05-25T11:52:53.289Z,37.88
2017-05-25T11:53:53.297Z,37.3
2017-05-25T11:54:53.053Z,37.3
2017-05-25T11:55:53.012Z,37.79
2017-05-25T11:56:53.321Z,37.59
2017-05-25T11:57:53.333Z,37.88
2017-05-25T11:58:53.026Z,37.23
2017-05-25T11:59:53.395Z,37.41
2017-05-25T12:00:53.046Z,37.4
2017-05-25T12:01:53.365Z,37.13
2017-05-25T12:02:53.383Z,36.64
2017-05-25T12:03:53.067Z,36.93
2017-05-25T12:04:53.547Z,36.93
2017-05-25T12:05:53.394Z,37.03
2017-05-25T12:06:53.405Z,37.49
2017-05-25T12:07:53.102Z,37.49
2017-05-25T12:08:53.422Z,37.51
2017-05-25T12:09:53.428Z,37.49
2017-05-25T12:10:53.486Z,37.4
2017-05-25T12:11:53.448Z,37.69
2017-05-25T12:12:53.455Z,37.3
2017-05-25T12:13:53.464Z,37.49
2017-05-25T12:14:53.519Z,37.01
2017-05-25T12:15:53.218Z,37.49
2017-05-25T12:16:53.488Z,37.49
2017-05-25T12:17:53.284Z,37.4
2017-05-25T12:18:53.504Z,37.88
2017-05-25T12:19:53.560Z,37.59
2017-05-25T12:20:53.518Z,37.69
2017-05-25T12:21:53.529Z,37.4
2017-05-25T12:22:53.535Z,37.49
2017-05-25T12:23:53.550Z,37.88
2017-05-25T12:24:53.560Z,37.21
2017-05-25T12:25:53.561Z,37.03
2017-05-25T12:26:53.270Z,37.13
2017-05-25T12:27:53.266Z,37.3
2017-05-25T12:28:53.274Z,37.69
2017-05-25T12:29:53.590Z,37.69
2017-05-25T12:30:53.599Z,37.79
2017-05-25T12:31:53.609Z,37.69
2017-05-25T12:32:53.666Z,37.9
2017-05-25T12:33:53.628Z,37.79
2017-05-25T12:34:53.684Z,37.79
2017-05-25T12:35:53.333Z,37.98
2017-05-25T12:36:53.648Z,37.98
2017-05-25T12:37:53.661Z,37.88
2017-05-25T12:38:53.668Z,37.98
2017-05-25T12:39:54.024Z,37.98
2017-05-25T12:40:53.436Z,38.07
2017-05-25T12:41:53.420Z,38.17
2017-05-25T12:42:53.699Z,37.79
2017-05-25T12:43:53.708Z,37.88
2017-05-25T12:44:53.719Z,37.69
2017-05-25T12:45:53.724Z,37.69
2017-05-25T12:46:53.418Z,37.98
2017-05-25T12:47:53.431Z,37.79
2017-05-25T12:48:53.749Z,37.79
2017-05-25T12:49:53.753Z,37.98
2017-05-25T12:50:53.761Z,37.88
2017-05-25T12:51:53.772Z,37.49
2017-05-25T12:52:53.520Z,37.21
2017-05-25T12:53:53.843Z,37.51
2017-05-25T12:54:53.800Z,37.81
2017-05-25T12:55:53.494Z,38.07
2017-05-25T12:56:53.813Z,37.88
2017-05-25T12:57:53.823Z,37.88
2017-05-25T12:58:53.527Z,38.07
2017-05-25T12:59:53.526Z,37.79